Time;durP1;ratioP1;P1;durP2;ratioP2;P2;SDS_P1;SDS_P2;PMS_P1;PMS_P2;Temp;Humidity;BMP_temperature;BMP_pressure;BME280_temperature;BME280_humidity;BME280_pressure;Samples;Min_cycle;Max_cycle;Signal;HPM_P1;HPM_P2
2023/04/04 00:01:36;;;;;;;3.67;1.52;;;1.60;99.90;;;;;;5038156;28;20040;-73
2023/04/04 00:04:02;;;;;;;9.95;2.13;;;1.80;99.90;;;;;;5051928;28;20043;-73
2023/04/04 00:06:27;;;;;;;4.22;1.60;;;1.60;99.90;;;;;;5055434;28;20453;-73
2023/04/04 00:08:53;;;;;;;5.88;1.77;;;1.50;99.90;;;;;;5045315;28;20060;-73
2023/04/04 00:11:20;;;;;;;5.32;1.85;;;1.50;99.90;;;;;;5035679;28;20041;-72
2023/04/04 00:13:46;;;;;;;7.57;2.42;;;1.50;99.90;;;;;;5035725;28;20457;-73
2023/04/04 00:16:12;;;;;;;8.23;2.20;;;1.50;99.90;;;;;;5041591;28;20036;-72
2023/04/04 00:18:38;;;;;;;5.68;1.90;;;1.50;99.90;;;;;;5040814;28;20063;-72
2023/04/04 00:21:03;;;;;;;5.18;2.10;;;1.40;99.90;;;;;;5047743;28;20782;-73
2023/04/04 00:23:29;;;;;;;4.95;2.10;;;1.40;99.90;;;;;;5036642;28;20430;-73
2023/04/04 00:25:55;;;;;;;6.03;2.22;;;1.40;99.90;;;;;;5042588;28;20401;-73
2023/04/04 00:28:21;;;;;;;5.35;1.90;;;1.40;99.90;;;;;;5040133;28;20048;-73
2023/04/04 00:30:47;;;;;;;5.25;2.00;;;2.20;99.90;;;;;;5030755;28;20045;-73
2023/04/04 00:33:14;;;;;;;3.92;1.83;;;1.30;99.90;;;;;;5035959;28;20221;-74
2023/04/04 00:35:40;;;;;;;6.53;2.40;;;1.30;99.90;;;;;;5035240;28;20254;-73
2023/04/04 00:38:06;;;;;;;4.93;1.80;;;1.30;99.90;;;;;;5047716;28;20037;-72
2023/04/04 00:40:40;;;;;;;5.35;1.90;;;0.30;99.90;;;;;;5043036;28;20475;-73
2023/04/04 00:43:06;;;;;;;10.82;3.17;;;1.20;99.90;;;;;;5043332;28;20448;-73
2023/04/04 00:45:33;;;;;;;6.07;1.98;;;1.20;99.90;;;;;;5045661;28;20091;-74
2023/04/04 00:48:01;;;;;;;5.03;2.00;;;1.20;99.90;;;;;;5042922;28;20799;-73
2023/04/04 00:50:27;;;;;;;6.32;2.80;;;1.20;99.90;;;;;;5023132;28;20044;-72
2023/04/04 00:52:54;;;;;;;7.20;2.30;;;1.10;99.90;;;;;;5029558;28;20063;-73
2023/04/04 00:55:20;;;;;;;9.90;2.67;;;1.10;99.90;;;;;;5057200;28;20045;-73
2023/04/04 00:57:45;;;;;;;5.97;2.40;;;1.10;99.90;;;;;;5041536;28;20407;-73
2023/04/04 01:00:12;;;;;;;7.93;2.10;;;1.30;99.90;;;;;;5045212;28;20155;-74
2023/04/04 01:02:38;;;;;;;5.07;1.70;;;1.00;99.90;;;;;;5024311;28;20052;-72
2023/04/04 01:05:05;;;;;;;6.28;2.35;;;1.00;99.90;;;;;;5030780;28;20052;-73
2023/04/04 01:07:30;;;;;;;4.93;1.92;;;1.00;99.90;;;;;;5039808;28;20048;-73
2023/04/04 01:09:57;;;;;;;5.80;2.20;;;1.00;99.90;;;;;;5042600;28;20601;-73
2023/04/04 01:12:26;;;;;;;5.88;2.30;;;1.10;99.90;;;;;;5040403;28;20129;-73
2023/04/04 01:14:52;;;;;;;5.70;1.98;;;0.90;99.90;;;;;;5048057;28;20037;-73
2023/04/04 01:17:18;;;;;;;7.80;2.13;;;0.90;99.90;;;;;;5038406;28;20029;-72
2023/04/04 01:19:55;;;;;;;6.80;2.17;;;0.90;99.90;;;;;;5057958;28;20189;-72
2023/04/04 01:22:22;;;;;;;5.63;2.10;;;1.30;99.90;;;;;;5038042;28;20057;-72
2023/04/04 01:24:48;;;;;;;6.00;2.20;;;0.90;99.90;;;;;;5026136;28;20048;-72
2023/04/04 01:27:15;;;;;;;8.57;2.78;;;0.80;99.90;;;;;;5041495;28;20138;-72
2023/04/04 01:29:40;;;;;;;9.32;2.80;;;1.30;99.90;;;;;;5041481;28;20082;-72
2023/04/04 01:32:20;;;;;;;7.32;2.67;;;0.80;99.90;;;;;;5055981;28;20036;-72
2023/04/04 01:35:04;;;;;;;8.15;2.50;;;0.70;99.90;;;;;;5038702;28;20351;-72
2023/04/04 01:37:37;;;;;;;6.43;2.50;;;0.70;99.90;;;;;;5057615;28;20778;-72
2023/04/04 01:40:34;;;;;;;6.55;2.53;;;0.70;99.90;;;;;;5036129;28;20509;-73
2023/04/04 01:43:00;;;;;;;7.13;2.60;;;0.70;99.90;;;;;;5015675;28;20045;-72
2023/04/04 01:45:28;;;;;;;6.78;2.78;;;0.70;99.90;;;;;;5033549;28;20056;-72
2023/04/04 01:47:55;;;;;;;6.85;2.60;;;0.70;99.90;;;;;;5021210;28;20047;-72
2023/04/04 01:50:22;;;;;;;6.20;2.53;;;0.70;99.90;;;;;;5003806;28;20040;-72
2023/04/04 01:52:48;;;;;;;6.32;2.53;;;0.70;99.90;;;;;;5034934;28;20048;-73
2023/04/04 01:55:14;;;;;;;7.38;2.80;;;0.70;99.90;;;;;;5027144;28;20283;-72
2023/04/04 01:57:40;;;;;;;7.55;2.92;;;0.60;99.90;;;;;;5028560;28;20718;-72
2023/04/04 02:00:07;;;;;;;7.38;2.90;;;0.60;99.90;;;;;;5029667;28;20076;-73
2023/04/04 02:02:32;;;;;;;5.50;2.47;;;0.60;99.90;;;;;;5029855;28;20132;-72
2023/04/04 02:04:58;;;;;;;5.85;2.50;;;0.70;99.90;;;;;;5035172;28;20127;-72
2023/04/04 02:07:24;;;;;;;8.60;3.55;;;0.60;99.90;;;;;;5037052;28;20049;-72
2023/04/04 02:09:50;;;;;;;6.45;2.90;;;0.60;99.90;;;;;;5023454;28;20077;-72
2023/04/04 02:12:16;;;;;;;6.10;2.78;;;0.60;99.90;;;;;;5032813;28;20131;-72
2023/04/04 02:14:42;;;;;;;7.00;3.00;;;-0.20;99.90;;;;;;5032361;28;20049;-72
2023/04/04 02:17:07;;;;;;;8.65;3.20;;;0.50;99.90;;;;;;5024248;28;20049;-72
2023/04/04 02:19:34;;;;;;;10.82;3.45;;;0.60;99.90;;;;;;5027392;28;20045;-72
2023/04/04 02:22:00;;;;;;;9.98;3.65;;;0.50;99.90;;;;;;5029351;28;20049;-72
2023/04/04 02:24:26;;;;;;;9.35;3.38;;;0.50;99.90;;;;;;5018880;28;20037;-72
2023/04/04 02:26:51;;;;;;;9.15;3.40;;;0.50;99.90;;;;;;5021425;28;20522;-72
2023/04/04 02:29:18;;;;;;;7.03;3.58;;;0.60;99.90;;;;;;5020779;28;20075;-71
2023/04/04 02:31:43;;;;;;;10.40;3.63;;;0.60;99.90;;;;;;5033274;28;20109;-72
2023/04/04 02:34:09;;;;;;;8.40;3.42;;;0.60;99.90;;;;;;5026683;28;20053;-71
2023/04/04 02:36:35;;;;;;;9.38;3.97;;;1.60;99.90;;;;;;5023149;28;20045;-72
2023/04/04 02:39:01;;;;;;;7.97;3.70;;;0.60;99.90;;;;;;5026830;28;20407;-72
2023/04/04 02:41:27;;;;;;;11.10;3.83;;;0.50;99.90;;;;;;5015955;28;20057;-71
2023/04/04 02:43:54;;;;;;;10.00;3.65;;;0.60;99.90;;;;;;5040776;28;20059;-72
2023/04/04 02:46:19;;;;;;;10.73;3.95;;;-0.10;99.90;;;;;;5039240;28;20045;-71
2023/04/04 02:48:45;;;;;;;9.05;4.00;;;0.50;99.90;;;;;;5052703;28;20036;-72
2023/04/04 02:51:11;;;;;;;6.82;3.40;;;0.50;99.90;;;;;;5039232;28;20139;-72
2023/04/04 02:53:36;;;;;;;10.18;4.15;;;0.50;99.90;;;;;;5050486;28;20033;-72
2023/04/04 02:56:02;;;;;;;10.07;3.85;;;0.90;99.90;;;;;;5026947;28;20565;-72
2023/04/04 02:58:31;;;;;;;12.48;3.47;;;0.70;99.90;;;;;;5034493;28;20045;-72
2023/04/04 03:00:57;;;;;;;9.95;3.85;;;0.50;99.90;;;;;;5047512;28;20049;-72
2023/04/04 03:03:22;;;;;;;10.90;3.45;;;0.50;99.90;;;;;;5042599;28;20044;-72
2023/04/04 03:05:49;;;;;;;7.60;3.40;;;0.50;99.90;;;;;;5042315;28;20041;-72
2023/04/04 03:08:15;;;;;;;8.60;3.28;;;0.50;99.90;;;;;;5027336;28;20525;-72
2023/04/04 03:10:40;;;;;;;10.25;3.90;;;0.50;99.90;;;;;;5024612;28;20078;-72
2023/04/04 03:13:07;;;;;;;9.45;3.67;;;0.50;99.90;;;;;;5050039;28;20134;-72
2023/04/04 03:15:33;;;;;;;8.77;3.63;;;0.60;99.90;;;;;;5018088;28;20129;-72
2023/04/04 03:17:59;;;;;;;11.57;3.80;;;0.50;99.90;;;;;;5016492;28;20060;-72
2023/04/04 03:20:25;;;;;;;7.95;3.47;;;0.40;99.90;;;;;;5026410;28;21233;-71
2023/04/04 03:22:51;;;;;;;11.07;3.38;;;0.40;99.90;;;;;;5035004;28;20036;-71
2023/04/04 03:25:17;;;;;;;8.52;3.47;;;0.70;99.90;;;;;;5023384;28;20052;-71
2023/04/04 03:27:43;;;;;;;7.30;3.13;;;0.30;99.90;;;;;;5037879;28;20424;-72
2023/04/04 03:30:09;;;;;;;10.20;3.60;;;0.30;99.90;;;;;;5022279;28;20641;-71
2023/04/04 03:32:38;;;;;;;7.32;2.88;;;0.30;99.90;;;;;;5018025;28;20068;-71
2023/04/04 03:35:04;;;;;;;9.05;3.90;;;0.30;99.90;;;;;;5039012;28;20064;-71
2023/04/04 03:37:30;;;;;;;10.88;3.50;;;0.30;99.90;;;;;;5037207;28;20505;-71
2023/04/04 03:39:56;;;;;;;8.20;3.58;;;0.30;99.90;;;;;;5038073;28;20077;-71
2023/04/04 03:42:22;;;;;;;8.32;3.28;;;0.30;99.90;;;;;;5038687;28;21572;-71
2023/04/04 03:44:48;;;;;;;12.32;3.78;;;0.30;99.90;;;;;;5048287;28;20037;-71
2023/04/04 03:47:14;;;;;;;9.60;3.72;;;0.30;99.90;;;;;;5037716;28;20036;-71
2023/04/04 03:49:40;;;;;;;8.65;3.42;;;0.20;99.90;;;;;;5037887;28;20060;-72
2023/04/04 03:52:05;;;;;;;9.30;3.40;;;0.20;99.90;;;;;;5035163;28;20511;-71
2023/04/04 03:54:32;;;;;;;9.90;3.45;;;0.20;99.90;;;;;;5037936;28;20053;-70
2023/04/04 03:56:58;;;;;;;7.60;3.40;;;0.20;99.90;;;;;;5037429;28;20162;-72
2023/04/04 03:59:27;;;;;;;7.72;3.45;;;0.20;99.90;;;;;;5040783;28;20513;-70
2023/04/04 04:01:56;;;;;;;7.15;3.35;;;0.20;99.90;;;;;;5021584;28;20115;-71
2023/04/04 04:04:22;;;;;;;7.63;3.22;;;0.10;99.90;;;;;;5041824;28;20059;-71
2023/04/04 04:06:47;;;;;;;11.88;4.13;;;0.10;99.90;;;;;;5058552;28;20032;-72
2023/04/04 04:09:14;;;;;;;12.02;4.03;;;0.10;99.90;;;;;;5031645;28;20235;-71
2023/04/04 04:11:39;;;;;;;10.15;3.85;;;0.10;99.90;;;;;;5026867;28;20053;-72
2023/04/04 04:14:05;;;;;;;8.65;3.63;;;0.10;99.90;;;;;;5050574;28;20799;-71
2023/04/04 04:16:31;;;;;;;10.38;3.55;;;0.10;99.90;;;;;;5050478;28;20470;-71
2023/04/04 04:18:57;;;;;;;8.65;3.05;;;0.10;99.90;;;;;;5026915;28;20094;-71
2023/04/04 04:21:26;;;;;;;10.95;4.00;;;0.00;99.90;;;;;;5039692;28;20045;-72
2023/04/04 04:23:51;;;;;;;8.23;3.33;;;0.00;99.90;;;;;;5031833;28;20123;-72
2023/04/04 04:26:17;;;;;;;10.80;3.65;;;0.00;99.90;;;;;;5025082;28;20066;-71
2023/04/04 04:28:43;;;;;;;8.48;3.88;;;0.00;99.90;;;;;;5041097;28;20071;-72
2023/04/04 04:31:09;;;;;;;11.60;3.75;;;0.00;99.90;;;;;;5038747;28;20037;-71
2023/04/04 04:33:35;;;;;;;11.07;3.42;;;0.00;99.90;;;;;;5012514;28;20053;-72
2023/04/04 04:36:02;;;;;;;7.63;3.65;;;0.00;99.90;;;;;;5049452;28;20490;-71
2023/04/04 04:38:28;;;;;;;7.80;3.33;;;0.00;99.90;;;;;;5041090;28;20037;-71
2023/04/04 04:40:55;;;;;;;9.23;3.67;;;-0.10;99.90;;;;;;5016377;28;20096;-71
2023/04/04 04:43:21;;;;;;;10.20;3.65;;;-0.10;99.90;;;;;;5041880;28;20065;-72
2023/04/04 04:45:47;;;;;;;9.30;3.80;;;-0.10;99.90;;;;;;5038260;28;20076;-71
2023/04/04 04:48:13;;;;;;;9.43;3.92;;;-0.20;99.90;;;;;;5043007;28;20689;-71
2023/04/04 04:50:40;;;;;;;9.70;3.92;;;-0.10;99.90;;;;;;5035630;28;20122;-72
2023/04/04 04:53:07;;;;;;;10.73;4.00;;;-0.10;99.90;;;;;;5036154;28;20685;-72
2023/04/04 04:55:33;;;;;;;9.43;3.58;;;-0.10;99.90;;;;;;5017887;28;20077;-72
2023/04/04 04:57:58;;;;;;;11.50;4.00;;;0.50;99.90;;;;;;5044924;28;20513;-71
2023/04/04 05:00:27;;;;;;;8.90;3.67;;;-0.20;99.90;;;;;;5029021;28;20449;-71
2023/04/04 05:02:57;;;;;;;9.15;3.35;;;-0.20;99.90;;;;;;5028489;28;20050;-72
2023/04/04 05:05:23;;;;;;;8.20;3.50;;;-0.20;99.90;;;;;;5030466;28;20041;-71
2023/04/04 05:07:49;;;;;;;7.95;4.10;;;-0.20;99.90;;;;;;5031022;28;20496;-71
2023/04/04 05:10:15;;;;;;;11.23;3.88;;;-0.20;99.90;;;;;;5039819;28;20412;-71
2023/04/04 05:12:43;;;;;;;11.45;3.90;;;0.20;99.90;;;;;;5037231;28;20048;-71
2023/04/04 05:15:09;;;;;;;9.70;3.90;;;-0.20;99.90;;;;;;5029383;28;20106;-71
2023/04/04 05:17:35;;;;;;;7.90;3.97;;;-0.20;99.90;;;;;;5033608;28;20641;-72
2023/04/04 05:20:01;;;;;;;9.80;4.82;;;-0.20;99.90;;;;;;5047315;28;20071;-72
2023/04/04 05:22:27;;;;;;;7.25;3.83;;;-0.20;99.90;;;;;;5034919;28;20060;-72
2023/04/04 05:24:53;;;;;;;9.35;4.20;;;-0.20;99.90;;;;;;5032165;28;20485;-71
2023/04/04 05:27:18;;;;;;;9.30;3.63;;;-0.20;99.90;;;;;;5011871;28;20055;-71
2023/04/04 05:29:45;;;;;;;11.13;4.32;;;0.60;99.90;;;;;;5027649;28;20040;-71
2023/04/04 05:32:11;;;;;;;9.55;3.78;;;-0.20;99.90;;;;;;5033523;28;20037;-71
2023/04/04 05:34:37;;;;;;;10.00;3.72;;;0.00;99.90;;;;;;5019991;28;20784;-70
2023/04/04 05:37:03;;;;;;;13.15;4.32;;;-0.20;99.90;;;;;;5042507;28;20103;-71
2023/04/04 05:39:29;;;;;;;8.75;3.92;;;-0.20;99.90;;;;;;5020563;28;20719;-72
2023/04/04 05:41:55;;;;;;;8.75;3.88;;;-0.10;99.90;;;;;;5023973;28;20293;-71
2023/04/04 05:44:20;;;;;;;13.20;4.00;;;0.30;99.90;;;;;;5024721;28;20452;-71
2023/04/04 05:46:46;;;;;;;8.63;3.72;;;-0.10;99.90;;;;;;5029914;28;20041;-71
2023/04/04 05:49:12;;;;;;;9.15;4.15;;;0.00;99.90;;;;;;5030478;28;20053;-71
2023/04/04 05:51:37;;;;;;;11.27;3.30;;;0.00;99.90;;;;;;5021920;28;20690;-72
2023/04/04 05:54:06;;;;;;;8.05;3.83;;;0.00;99.90;;;;;;5029323;28;20040;-70
2023/04/04 05:56:32;;;;;;;9.00;3.80;;;0.10;99.90;;;;;;5023847;28;20052;-71
2023/04/04 05:58:58;;;;;;;12.50;3.42;;;0.00;99.90;;;;;;5031572;28;20055;-71
2023/04/04 06:01:28;;;;;;;11.57;3.90;;;0.10;99.90;;;;;;5028323;28;20409;-71
2023/04/04 06:03:59;;;;;;;7.80;3.10;;;-0.90;99.90;;;;;;5012917;28;20029;-70
2023/04/04 06:06:25;;;;;;;7.70;3.53;;;1.20;99.90;;;;;;5035294;28;20052;-70
2023/04/04 06:08:50;;;;;;;10.38;3.63;;;0.30;99.90;;;;;;5027048;28;20457;-72
2023/04/04 06:11:16;;;;;;;8.27;4.05;;;0.40;99.90;;;;;;5038433;28;20044;-71
2023/04/04 06:13:42;;;;;;;8.18;3.47;;;0.50;99.90;;;;;;5042406;28;20052;-72
2023/04/04 06:16:07;;;;;;;9.57;4.05;;;0.60;99.90;;;;;;5018683;28;20045;-72
2023/04/04 06:18:33;;;;;;;14.05;3.85;;;1.00;99.90;;;;;;5042759;28;20057;-72
2023/04/04 06:20:59;;;;;;;13.88;3.70;;;1.30;99.90;;;;;;5033771;28;20677;-72
2023/04/04 06:23:25;;;;;;;11.27;4.63;;;1.60;99.90;;;;;;5032188;28;20148;-73
2023/04/04 06:25:52;;;;;;;8.20;3.97;;;1.70;99.90;;;;;;5051760;28;20041;-72
2023/04/04 06:28:18;;;;;;;8.52;3.90;;;1.70;99.90;;;;;;5029455;28;20414;-72
2023/04/04 06:30:44;;;;;;;7.78;3.50;;;1.80;99.90;;;;;;5027744;28;20041;-72
2023/04/04 06:33:10;;;;;;;11.73;3.55;;;2.00;99.90;;;;;;5043469;28;20547;-72
2023/04/04 06:35:36;;;;;;;7.93;3.30;;;2.20;99.90;;;;;;5043600;28;20508;-72
2023/04/04 06:38:03;;;;;;;9.18;3.08;;;2.50;99.90;;;;;;5044733;28;20040;-73
2023/04/04 06:40:29;;;;;;;9.77;3.92;;;2.60;99.90;;;;;;5046008;28;20773;-73
2023/04/04 06:42:57;;;;;;;9.80;3.47;;;2.40;99.90;;;;;;5041797;28;20098;-72
2023/04/04 06:45:23;;;;;;;7.22;3.15;;;2.50;99.90;;;;;;5032411;28;20049;-73
2023/04/04 06:47:52;;;;;;;7.28;2.65;;;2.60;99.90;;;;;;5036014;28;20743;-72
2023/04/04 06:50:18;;;;;;;8.00;2.88;;;2.80;99.90;;;;;;5011798;28;20153;-73
2023/04/04 06:52:43;;;;;;;7.00;2.88;;;2.90;99.90;;;;;;5009119;28;20141;-74
2023/04/04 06:55:10;;;;;;;7.43;2.80;;;3.00;99.90;;;;;;5032940;28;20049;-73
2023/04/04 06:57:37;;;;;;;7.82;2.85;;;3.10;99.90;;;;;;5036525;28;20124;-73
2023/04/04 07:00:03;;;;;;;9.43;2.72;;;3.10;99.90;;;;;;5028422;28;20094;-73
2023/04/04 07:02:29;;;;;;;7.35;2.92;;;3.20;99.90;;;;;;5029018;28;20155;-73
2023/04/04 07:04:55;;;;;;;8.40;3.17;;;3.30;99.90;;;;;;5010032;28;20817;-74
2023/04/04 07:07:20;;;;;;;9.73;3.03;;;3.40;99.90;;;;;;5042867;28;20087;-74
2023/04/04 07:09:46;;;;;;;4.72;2.13;;;3.50;99.90;;;;;;5015934;28;20162;-74
2023/04/04 07:12:12;;;;;;;6.47;2.50;;;3.60;99.90;;;;;;5013547;28;20560;-73
2023/04/04 07:14:38;;;;;;;6.07;2.25;;;3.70;99.90;;;;;;5024579;28;20095;-73
2023/04/04 07:17:03;;;;;;;8.27;2.40;;;3.90;99.90;;;;;;5028016;28;20048;-74
2023/04/04 07:19:29;;;;;;;12.90;2.50;;;4.00;99.90;;;;;;5035571;28;20044;-74
2023/04/04 07:21:55;;;;;;;5.70;2.15;;;3.80;99.90;;;;;;5034699;28;20053;-73
2023/04/04 07:24:21;;;;;;;6.97;2.50;;;4.40;99.90;;;;;;5026385;28;20079;-74
2023/04/04 07:26:47;;;;;;;8.38;2.40;;;4.50;99.90;;;;;;5040592;28;20103;-74
2023/04/04 07:29:13;;;;;;;8.35;2.28;;;4.60;99.90;;;;;;5040366;28;20049;-74
2023/04/04 07:31:39;;;;;;;6.90;2.25;;;4.80;99.90;;;;;;5032265;28;20053;-74
2023/04/04 07:34:06;;;;;;;5.38;1.88;;;5.00;99.90;;;;;;5031407;28;20145;-74
2023/04/04 07:36:32;;;;;;;8.05;2.50;;;5.20;99.90;;;;;;5050411;28;20090;-75
2023/04/04 07:38:57;;;;;;;7.38;2.13;;;5.30;99.90;;;;;;5037174;28;20124;-70
2023/04/04 07:41:24;;;;;;;8.55;2.47;;;5.50;99.90;;;;;;5039460;28;20081;-71
2023/04/04 07:43:50;;;;;;;10.88;2.70;;;5.60;99.90;;;;;;5014422;28;20059;-70
2023/04/04 07:46:16;;;;;;;10.07;2.25;;;5.70;99.90;;;;;;5024638;28;20045;-71
2023/04/04 07:48:42;;;;;;;7.88;2.17;;;5.80;99.90;;;;;;5017561;28;20063;-70
2023/04/04 07:51:08;;;;;;;6.93;2.28;;;5.90;99.90;;;;;;5029786;28;20041;-70
2023/04/04 07:53:34;;;;;;;8.63;2.03;;;6.00;99.90;;;;;;5009696;28;20405;-70
2023/04/04 07:56:05;;;;;;;7.13;1.85;;;6.10;99.90;;;;;;5050080;28;20137;-70
2023/04/04 07:58:35;;;;;;;6.43;2.05;;;6.20;99.90;;;;;;5015271;28;20044;-70
2023/04/04 08:01:04;;;;;;;6.45;1.85;;;6.20;99.90;;;;;;5045728;28;20076;-70
2023/04/04 08:03:30;;;;;;;7.65;1.80;;;6.20;99.90;;;;;;5050990;28;20056;-70
2023/04/04 08:05:55;;;;;;;7.97;2.10;;;6.30;99.90;;;;;;5034870;28;20119;-70
2023/04/04 08:08:21;;;;;;;7.10;2.00;;;6.50;99.90;;;;;;5035500;28;20169;-70
2023/04/04 08:10:48;;;;;;;9.52;2.28;;;6.40;99.90;;;;;;5045406;28;20554;-70
2023/04/04 08:13:14;;;;;;;11.38;3.10;;;6.50;99.90;;;;;;5035474;28;20041;-70
2023/04/04 08:15:40;;;;;;;7.88;2.20;;;6.40;99.90;;;;;;5048767;28;20036;-71
2023/04/04 08:18:06;;;;;;;6.45;2.20;;;6.60;99.90;;;;;;5034771;28;20040;-71
2023/04/04 08:20:31;;;;;;;7.40;2.00;;;6.50;99.90;;;;;;5033999;28;20106;-70
2023/04/04 08:22:57;;;;;;;6.72;2.13;;;6.60;99.90;;;;;;5034826;28;20037;-69
2023/04/04 08:25:24;;;;;;;9.95;3.05;;;6.70;99.90;;;;;;5040769;28;20071;-70
2023/04/04 08:27:49;;;;;;;6.55;1.90;;;6.90;99.90;;;;;;5012920;28;20464;-70
2023/04/04 08:30:15;;;;;;;5.95;2.45;;;6.90;99.90;;;;;;5032790;28;20049;-70
2023/04/04 08:32:44;;;;;;;7.25;1.90;;;7.00;99.90;;;;;;5025872;28;20060;-70
2023/04/04 08:35:11;;;;;;;7.18;2.03;;;7.00;99.90;;;;;;5036476;28;20097;-69
2023/04/04 08:37:37;;;;;;;6.65;2.38;;;7.50;99.90;;;;;;5037407;28;20131;-69
2023/04/04 08:40:05;;;;;;;7.10;2.15;;;7.00;99.90;;;;;;5033797;28;20150;-70
2023/04/04 08:42:34;;;;;;;9.75;2.10;;;7.10;99.90;;;;;;5026133;28;20060;-70
2023/04/04 08:45:03;;;;;;;4.97;1.50;;;7.10;99.90;;;;;;5022071;28;20048;-71
2023/04/04 08:47:31;;;;;;;4.22;1.45;;;7.10;99.90;;;;;;5042875;28;20081;-70
2023/04/04 08:50:00;;;;;;;6.28;2.00;;;7.50;99.90;;;;;;5055838;28;20052;-71
2023/04/04 08:52:27;;;;;;;7.32;1.88;;;7.30;99.90;;;;;;5017969;28;20040;-71
2023/04/04 08:54:55;;;;;;;5.72;1.33;;;7.40;99.90;;;;;;5047216;28;20052;-70
2023/04/04 08:57:21;;;;;;;6.07;1.88;;;7.30;99.90;;;;;;5046556;28;20059;-71
2023/04/04 08:59:47;;;;;;;7.75;1.98;;;7.30;99.90;;;;;;5045405;28;20036;-70
2023/04/04 09:02:30;;;;;;;5.32;1.75;;;7.50;99.90;;;;;;5018633;28;20045;-71
2023/04/04 09:05:01;;;;;;;4.82;1.70;;;7.30;99.90;;;;;;5047301;28;20056;-70
2023/04/04 09:07:28;;;;;;;5.93;1.63;;;7.30;99.90;;;;;;5049912;28;20068;-71
2023/04/04 09:09:54;;;;;;;4.63;1.25;;;7.30;99.90;;;;;;5025098;28;20052;-71
2023/04/04 09:12:21;;;;;;;5.90;1.77;;;7.30;99.90;;;;;;5040936;28;20049;-70
2023/04/04 09:14:50;;;;;;;7.30;1.50;;;7.40;99.90;;;;;;5034884;28;20067;-71
2023/04/04 09:17:17;;;;;;;6.22;1.95;;;7.30;99.90;;;;;;5042414;28;20075;-70
2023/04/04 09:19:45;;;;;;;6.28;1.50;;;7.40;99.90;;;;;;5018134;28;20041;-71
2023/04/04 09:22:11;;;;;;;6.45;1.58;;;7.40;99.90;;;;;;5035326;28;20044;-71
2023/04/04 09:24:41;;;;;;;6.28;1.58;;;7.40;99.90;;;;;;5035484;28;20057;-71
2023/04/04 09:27:09;;;;;;;5.55;1.50;;;7.40;99.90;;;;;;5011978;28;20434;-71
2023/04/04 09:29:37;;;;;;;7.32;1.80;;;7.40;99.90;;;;;;5035130;28;20048;-70
2023/04/04 09:32:03;;;;;;;6.18;1.80;;;7.40;99.90;;;;;;5014214;28;20044;-71
2023/04/04 09:34:30;;;;;;;4.90;1.50;;;7.50;99.90;;;;;;5028851;28;20053;-71
2023/04/04 09:36:57;;;;;;;8.20;1.70;;;7.60;99.90;;;;;;5021159;28;20571;-71
2023/04/04 09:39:23;;;;;;;5.90;1.77;;;7.60;99.90;;;;;;5014855;28;20641;-71
2023/04/04 09:41:49;;;;;;;12.32;2.30;;;7.60;99.90;;;;;;5043596;28;20565;-71
2023/04/04 09:44:16;;;;;;;5.53;2.03;;;7.60;99.90;;;;;;5056003;28;20753;-71
2023/04/04 09:46:41;;;;;;;5.80;1.90;;;7.60;99.90;;;;;;5033592;28;20765;-71
2023/04/04 09:49:18;;;;;;;5.88;1.60;;;7.60;99.90;;;;;;5042521;28;20047;-71
2023/04/04 09:51:48;;;;;;;5.78;1.65;;;7.60;99.90;;;;;;5037363;28;20036;-71
2023/04/04 09:54:20;;;;;;;7.53;1.90;;;7.60;99.90;;;;;;5039346;28;20378;-71
2023/04/04 09:56:47;;;;;;;6.40;2.15;;;7.70;99.90;;;;;;5016087;28;20079;-72
2023/04/04 09:59:14;;;;;;;7.88;2.20;;;7.70;99.90;;;;;;5039744;28;20409;-72
2023/04/04 10:01:39;;;;;;;7.13;2.10;;;7.80;99.90;;;;;;5036316;28;20053;-71
2023/04/04 10:04:07;;;;;;;6.93;2.00;;;7.80;99.90;;;;;;5027950;28;20048;-71
2023/04/04 10:06:36;;;;;;;8.30;2.72;;;7.90;99.90;;;;;;5034237;28;20041;-71
2023/04/04 10:09:03;;;;;;;5.72;1.80;;;7.90;99.90;;;;;;5025340;28;20542;-71
2023/04/04 10:11:33;;;;;;;8.60;2.15;;;8.00;99.90;;;;;;5037577;28;20053;-72
2023/04/04 10:14:05;;;;;;;6.28;1.80;;;8.00;99.90;;;;;;5035969;28;20511;-71
2023/04/04 10:16:33;;;;;;;8.85;1.88;;;8.20;99.90;;;;;;5040220;28;20052;-71
2023/04/04 10:19:04;;;;;;;7.78;2.15;;;8.00;99.90;;;;;;5060674;28;20051;-72
2023/04/04 10:21:30;;;;;;;7.63;2.47;;;8.10;99.90;;;;;;5016023;28;20053;-71
2023/04/04 10:23:59;;;;;;;5.00;2.00;;;8.20;99.90;;;;;;5030227;28;20064;-71
2023/04/04 10:26:25;;;;;;;6.88;2.00;;;8.20;99.90;;;;;;5043317;28;20059;-71
2023/04/04 10:28:50;;;;;;;8.20;2.33;;;8.10;99.90;;;;;;5031819;28;20652;-71
2023/04/04 10:31:26;;;;;;;9.73;2.30;;;8.10;99.90;;;;;;5058973;28;20076;-71
2023/04/04 10:34:04;;;;;;;6.32;2.10;;;8.00;99.90;;;;;;5031023;28;20543;-71
2023/04/04 10:36:39;;;;;;;8.90;2.08;;;7.90;99.90;;;;;;5031850;28;20118;-71
2023/04/04 10:39:26;;;;;;;8.13;2.40;;;7.90;99.70;;;;;;5036297;28;20049;-71
2023/04/04 10:41:54;;;;;;;5.88;2.28;;;8.00;99.90;;;;;;5037247;28;20222;-71
2023/04/04 10:44:33;;;;;;;7.22;2.13;;;8.00;99.80;;;;;;5042374;28;20064;-71
2023/04/04 10:47:13;;;;;;;7.63;2.25;;;8.00;99.60;;;;;;5040968;28;20053;-71
2023/04/04 10:49:41;;;;;;;6.72;2.50;;;8.00;99.40;;;;;;5044348;28;20138;-71
2023/04/04 10:52:08;;;;;;;7.70;2.25;;;8.00;99.50;;;;;;5038218;28;20102;-71
2023/04/04 10:54:34;;;;;;;9.68;3.45;;;8.00;98.60;;;;;;5043087;28;20052;-71
2023/04/04 10:57:03;;;;;;;8.32;2.50;;;8.00;99.40;;;;;;5034872;28;20110;-71
2023/04/04 10:59:29;;;;;;;6.35;2.42;;;7.90;98.30;;;;;;5044279;28;20342;-71
2023/04/04 11:02:01;;;;;;;7.53;2.30;;;8.00;98.90;;;;;;5019249;28;20147;-71
2023/04/04 11:04:36;;;;;;;6.50;2.20;;;7.80;99.10;;;;;;5053817;28;20040;-71
2023/04/04 11:07:13;;;;;;;6.55;2.33;;;7.80;98.80;;;;;;5042299;28;20044;-71
2023/04/04 11:09:48;;;;;;;7.65;2.10;;;7.90;99.10;;;;;;5035581;28;20086;-72
2023/04/04 11:12:19;;;;;;;9.20;3.08;;;7.90;99.50;;;;;;5030142;28;20043;-71
2023/04/04 11:14:55;;;;;;;6.03;2.23;;;7.90;99.20;;;;;;5035057;28;20093;-72
2023/04/04 11:18:01;;;;;;;10.98;2.85;;;8.00;99.50;;;;;;5050527;28;20048;-71
2023/04/04 11:20:28;;;;;;;6.95;2.15;;;8.10;99.30;;;;;;4980680;28;20042;-71
2023/04/04 11:23:25;;;;;;;7.85;2.85;;;8.10;99.10;;;;;;4982327;28;20042;-71
2023/04/04 11:25:59;;;;;;;6.60;2.42;;;8.10;98.60;;;;;;4990917;28;20477;-72
2023/04/04 11:28:31;;;;;;;6.32;2.55;;;8.20;98.70;;;;;;5021875;28;20048;-71
2023/04/04 11:31:22;;;;;;;10.73;2.40;;;8.20;99.10;;;;;;5038392;28;20499;-71
2023/04/04 11:33:57;;;;;;;7.63;2.60;;;8.10;97.90;;;;;;5040212;28;20048;-71
2023/04/04 11:36:44;;;;;;;10.77;3.42;;;8.10;97.80;;;;;;5032187;28;20053;-72
2023/04/04 11:39:30;;;;;;;7.40;2.75;;;8.00;97.70;;;;;;5027298;28;20064;-71
2023/04/04 11:41:59;;;;;;;7.32;2.70;;;8.10;98.40;;;;;;5023218;28;20082;-71
2023/04/04 11:44:29;;;;;;;8.52;3.03;;;8.10;98.30;;;;;;5026535;28;20099;-71
2023/04/04 11:47:10;;;;;;;7.23;2.77;;;8.10;98.30;;;;;;5031187;28;20040;-71
2023/04/04 11:49:40;;;;;;;11.43;3.30;;;8.20;97.90;;;;;;5003885;28;20083;-70
2023/04/04 11:52:08;;;;;;;6.97;3.00;;;8.20;97.60;;;;;;5027005;28;20037;-71
2023/04/04 11:54:36;;;;;;;7.55;3.10;;;8.20;97.00;;;;;;5031047;28;20623;-72
2023/04/04 11:57:03;;;;;;;8.73;3.10;;;8.80;97.60;;;;;;5039459;28;20349;-72
2023/04/04 11:59:30;;;;;;;10.88;3.08;;;8.20;97.80;;;;;;5036105;28;20059;-71
2023/04/04 12:01:56;;;;;;;7.72;3.20;;;8.30;98.00;;;;;;5036519;28;20056;-72
2023/04/04 12:04:24;;;;;;;8.00;2.75;;;8.30;97.40;;;;;;5033257;28;20497;-71
2023/04/04 12:06:55;;;;;;;5.80;2.85;;;8.30;97.30;;;;;;5031225;28;20540;-71
2023/04/04 12:09:24;;;;;;;7.68;2.80;;;8.40;98.50;;;;;;5048992;28;20068;-71
2023/04/04 12:11:50;;;;;;;7.78;2.92;;;8.40;98.40;;;;;;5033651;28;20037;-71
2023/04/04 12:14:21;;;;;;;8.05;2.20;;;8.50;97.60;;;;;;5031567;28;20056;-71
2023/04/04 12:16:48;;;;;;;8.35;3.05;;;8.50;97.50;;;;;;5040298;28;21507;-73
2023/04/04 12:19:15;;;;;;;7.50;2.58;;;8.50;97.30;;;;;;5029072;28;20059;-71
2023/04/04 12:21:41;;;;;;;7.07;2.70;;;8.50;97.10;;;;;;5039896;28;20041;-71
2023/04/04 12:24:10;;;;;;;8.30;2.70;;;8.60;97.30;;;;;;5044501;28;20045;-71
2023/04/04 12:26:44;;;;;;;7.32;2.88;;;8.50;97.60;;;;;;5027981;28;20391;-71
2023/04/04 12:29:12;;;;;;;7.10;2.88;;;8.50;97.90;;;;;;5028590;28;20160;-71
2023/04/04 12:31:41;;;;;;;8.05;2.97;;;8.50;98.00;;;;;;5041360;28;20561;-71
2023/04/04 12:34:16;;;;;;;9.18;2.75;;;8.80;97.50;;;;;;5030420;28;20761;-70
2023/04/04 12:36:42;;;;;;;7.50;2.85;;;8.60;97.30;;;;;;5032059;28;20132;-71
2023/04/04 12:39:10;;;;;;;8.20;2.95;;;8.50;97.00;;;;;;5046959;28;20131;-71
2023/04/04 12:42:07;;;;;;;8.73;3.03;;;8.50;97.20;;;;;;5027579;28;20160;-71
2023/04/04 12:44:33;;;;;;;8.18;2.90;;;8.50;96.40;;;;;;5014199;28;20119;-70
2023/04/04 12:47:03;;;;;;;8.38;2.80;;;8.50;97.40;;;;;;5035902;28;20049;-71
2023/04/04 12:49:31;;;;;;;8.00;2.85;;;8.50;97.10;;;;;;5040331;28;20053;-71
2023/04/04 12:52:03;;;;;;;8.45;2.40;;;8.50;97.30;;;;;;5016429;28;20484;-71
2023/04/04 12:54:31;;;;;;;9.82;2.80;;;8.60;97.60;;;;;;5017232;28;20069;-71
2023/04/04 12:56:58;;;;;;;7.88;2.60;;;8.70;97.50;;;;;;5011655;28;20048;-71
2023/04/04 12:59:30;;;;;;;7.68;2.75;;;8.90;97.80;;;;;;5029542;28;20086;-71